createdAt,value
2018-01-16T00:01:49.607Z,35.38
2018-01-16T00:04:15.409Z,35.48
2018-01-16T00:06:41.219Z,35.71
2018-01-16T00:09:07.047Z,35.62
2018-01-16T00:11:32.872Z,35.62
2018-01-16T00:13:58.714Z,35.59
2018-01-16T00:16:24.515Z,35.70
2018-01-16T00:18:50.318Z,36.03
2018-01-16T00:21:16.124Z,35.90
2018-01-16T00:23:41.930Z,36.04
2018-01-16T00:26:07.840Z,36.09
2018-01-16T00:28:34.648Z,36.21
2018-01-16T00:31:00.449Z,36.61
2018-01-16T00:33:27.195Z,36.60
2018-01-16T00:35:53.853Z,36.57
2018-01-16T00:38:19.658Z,36.99
2018-01-16T00:40:45.469Z,36.85
2018-01-16T00:43:12.221Z,37.32
2018-01-16T00:45:38.906Z,37.28
2018-01-16T00:48:04.763Z,37.07
2018-01-16T00:50:30.577Z,37.44
2018-01-16T00:52:57.433Z,37.53
2018-01-16T00:55:23.270Z,37.26
2018-01-16T00:57:49.081Z,37.55
2018-01-16T01:00:14.923Z,37.40
2018-01-16T01:02:47.744Z,37.43
2018-01-16T01:05:13.549Z,37.76
2018-01-16T01:07:39.395Z,37.63
2018-01-16T01:10:05.196Z,37.48
2018-01-16T01:12:31.000Z,37.65
2018-01-16T01:14:57.787Z,37.69
2018-01-16T01:17:23.581Z,37.70
2018-01-16T01:19:49.417Z,37.74
2018-01-16T01:22:15.257Z,37.53
2018-01-16T01:24:41.100Z,37.47
2018-01-16T01:27:07.910Z,37.44
2018-01-16T01:29:33.750Z,37.51
2018-01-16T01:32:00.390Z,37.69
2018-01-16T01:34:26.221Z,38.05
2018-01-16T01:36:52.021Z,37.61
2018-01-16T01:39:18.614Z,37.09
2018-01-16T01:41:45.329Z,37.29
2018-01-16T01:44:11.171Z,37.44
2018-01-16T01:46:36.978Z,37.37
2018-01-16T01:49:08.954Z,37.39
2018-01-16T01:51:35.734Z,37.67
2018-01-16T01:54:01.574Z,37.57
2018-01-16T01:56:28.305Z,37.52
2018-01-16T01:58:54.156Z,37.86
2018-01-16T02:01:20.781Z,37.91
2018-01-16T02:03:46.581Z,37.78
2018-01-16T02:06:12.385Z,38.06
2018-01-16T02:08:38.181Z,38.03
2018-01-16T02:11:03.985Z,38.13
2018-01-16T02:13:29.825Z,38.27
2018-01-16T02:15:55.621Z,38.16
2018-01-16T02:18:26.278Z,38.30
2018-01-16T02:20:52.084Z,38.47
2018-01-16T02:23:17.947Z,38.38
2018-01-16T02:25:43.786Z,38.41
2018-01-16T02:28:09.602Z,38.62
2018-01-16T02:30:35.409Z,38.49
2018-01-16T02:33:01.219Z,38.60
2018-01-16T02:35:27.017Z,38.78
2018-01-16T02:37:52.828Z,38.99
2018-01-16T02:40:18.674Z,38.93
2018-01-16T02:42:44.478Z,38.88
2018-01-16T02:45:10.311Z,39.06
2018-01-16T02:47:36.129Z,39.13
2018-01-16T02:50:02.014Z,39.09
2018-01-16T02:52:27.835Z,38.94
2018-01-16T02:54:53.656Z,39.02
2018-01-16T02:57:19.470Z,39.19
2018-01-16T02:59:45.313Z,39.10
2018-01-16T03:02:11.114Z,39.48
2018-01-16T03:04:36.921Z,39.78
2018-01-16T03:07:02.722Z,39.36
2018-01-16T03:09:28.529Z,39.48
2018-01-16T03:11:54.375Z,39.45
2018-01-16T03:14:20.182Z,39.78
2018-01-16T03:16:46.023Z,39.70
2018-01-16T03:19:11.827Z,39.77
2018-01-16T03:21:37.638Z,39.88
2018-01-16T03:24:03.447Z,39.54
2018-01-16T03:26:29.285Z,39.66
2018-01-16T03:28:55.086Z,39.99
2018-01-16T03:31:20.894Z,39.90
2018-01-16T03:33:46.737Z,39.87
2018-01-16T03:36:12.540Z,39.86
2018-01-16T03:38:38.377Z,39.91
2018-01-16T03:41:04.186Z,39.73
2018-01-16T03:43:30.045Z,39.84
2018-01-16T03:45:55.841Z,39.96
2018-01-16T03:48:21.653Z,40.10
2018-01-16T03:50:47.461Z,40.31
2018-01-16T03:53:13.267Z,40.03
2018-01-16T03:55:39.069Z,39.87
2018-01-16T03:58:04.880Z,40.03
2018-01-16T04:00:30.689Z,39.87
2018-01-16T04:02:56.494Z,40.05
2018-01-16T04:05:22.306Z,40.02
2018-01-16T04:07:48.109Z,39.84
2018-01-16T04:10:14.094Z,40.00
2018-01-16T04:12:39.896Z,39.96
2018-01-16T04:15:05.729Z,40.10
2018-01-16T04:17:31.590Z,40.22
2018-01-16T04:19:57.404Z,40.75
2018-01-16T04:22:23.210Z,41.01
2018-01-16T04:24:56.122Z,40.33
2018-01-16T04:27:22.007Z,40.04
2018-01-16T04:29:47.810Z,40.06
2018-01-16T04:32:13.647Z,40.43
2018-01-16T04:34:39.454Z,40.13
2018-01-16T04:37:05.293Z,40.41
2018-01-16T04:39:31.097Z,40.33
2018-01-16T04:41:56.943Z,40.21
2018-01-16T04:44:22.753Z,40.28
2018-01-16T04:46:48.607Z,40.40
2018-01-16T04:49:14.405Z,40.15
2018-01-16T04:51:40.259Z,40.38
2018-01-16T04:54:06.070Z,40.42
2018-01-16T04:56:31.921Z,40.33
2018-01-16T04:58:57.760Z,40.39
2018-01-16T05:01:23.565Z,40.94
2018-01-16T05:03:49.402Z,40.96
2018-01-16T05:06:15.214Z,40.83
2018-01-16T05:08:41.026Z,40.76
2018-01-16T05:11:06.866Z,40.91
2018-01-16T05:13:32.666Z,40.63
2018-01-16T05:15:58.506Z,40.60
2018-01-16T05:18:24.325Z,40.99
2018-01-16T05:20:50.187Z,40.70
2018-01-16T05:23:15.993Z,40.68
2018-01-16T05:25:41.845Z,40.93
2018-01-16T05:28:07.662Z,41.79
2018-01-16T05:30:33.517Z,41.73
2018-01-16T05:32:59.318Z,42.14
2018-01-16T05:35:25.125Z,42.49
2018-01-16T05:37:50.946Z,41.25
2018-01-16T05:40:16.768Z,41.01
2018-01-16T05:42:42.600Z,41.67
2018-01-16T05:45:08.427Z,41.75
2018-01-16T05:47:34.242Z,42.61
2018-01-16T05:50:00.068Z,42.03
2018-01-16T05:52:25.926Z,41.52
2018-01-16T05:54:51.757Z,41.54
2018-01-16T05:57:17.758Z,41.74
2018-01-16T05:59:43.766Z,43.00
2018-01-16T06:02:09.566Z,43.48
2018-01-16T06:04:35.381Z,42.75
2018-01-16T06:07:01.194Z,42.06
2018-01-16T06:09:26.999Z,41.37
2018-01-16T06:11:52.802Z,41.80
2018-01-16T06:14:18.609Z,42.21
2018-01-16T06:16:44.440Z,42.02
2018-01-16T06:19:10.460Z,41.67
2018-01-16T06:21:36.274Z,42.51
2018-01-16T06:24:02.121Z,42.45
2018-01-16T06:26:27.926Z,42.41
2018-01-16T06:28:53.793Z,42.49
2018-01-16T06:31:19.606Z,42.81
2018-01-16T06:33:45.458Z,42.87
2018-01-16T06:36:11.263Z,42.27
2018-01-16T06:38:37.070Z,42.43
2018-01-16T06:41:02.893Z,42.00
2018-01-16T06:43:28.716Z,42.14
2018-01-16T06:45:54.650Z,42.21
2018-01-16T06:48:20.464Z,42.10
2018-01-16T06:50:46.266Z,41.93
2018-01-16T06:53:12.070Z,42.18
2018-01-16T06:55:37.879Z,42.21
2018-01-16T06:58:03.682Z,42.50
2018-01-16T07:00:29.515Z,42.28
2018-01-16T07:02:55.334Z,42.66
2018-01-16T07:05:21.142Z,42.60
2018-01-16T07:07:46.952Z,42.36
2018-01-16T07:10:12.757Z,42.73
2018-01-16T07:12:38.570Z,42.53
2018-01-16T07:15:04.445Z,42.74
2018-01-16T07:17:30.310Z,42.69
2018-01-16T07:19:56.974Z,42.62
2018-01-16T07:22:22.982Z,42.62
2018-01-16T07:24:48.807Z,43.19
2018-01-16T07:27:14.615Z,42.60
2018-01-16T07:29:40.464Z,42.85
2018-01-16T07:32:06.410Z,42.72
2018-01-16T07:34:32.218Z,42.62
2018-01-16T07:36:58.055Z,42.83
2018-01-16T07:39:23.862Z,42.80
2018-01-16T07:41:49.677Z,42.73
2018-01-16T07:44:15.486Z,42.79
2018-01-16T07:46:41.351Z,43.08
2018-01-16T07:49:07.190Z,43.01
2018-01-16T07:51:33.011Z,43.22
2018-01-16T07:53:59.233Z,42.91
2018-01-16T07:56:25.158Z,43.46
2018-01-16T07:58:50.976Z,42.98
2018-01-16T08:01:16.849Z,43.06
2018-01-16T08:03:42.661Z,43.40
2018-01-16T08:06:08.590Z,43.46
2018-01-16T08:08:35.401Z,43.35
2018-01-16T08:11:01.210Z,42.92
2018-01-16T08:13:27.058Z,43.02
2018-01-16T08:15:52.865Z,42.94
2018-01-16T08:18:18.727Z,42.81
2018-01-16T08:20:44.537Z,43.44
2018-01-16T08:23:10.385Z,43.75
2018-01-16T08:25:36.193Z,43.38
2018-01-16T08:28:02.051Z,43.42
2018-01-16T08:30:28.078Z,43.07
2018-01-16T08:32:53.882Z,43.42
2018-01-16T08:35:19.690Z,43.11
2018-01-16T08:37:45.541Z,43.57
2018-01-16T08:40:11.386Z,43.65
2018-01-16T08:42:37.195Z,43.67
2018-01-16T08:45:03.042Z,43.50
2018-01-16T08:47:28.846Z,43.77
2018-01-16T08:49:54.708Z,43.33
2018-01-16T08:52:20.512Z,43.42
2018-01-16T08:54:46.371Z,44.16
2018-01-16T08:57:12.922Z,43.79
2018-01-16T08:59:38.728Z,44.09
2018-01-16T09:02:04.538Z,43.84
2018-01-16T09:04:30.390Z,43.77
2018-01-16T09:06:56.202Z,44.14
2018-01-16T09:09:22.015Z,43.99
2018-01-16T09:11:47.860Z,43.66
2018-01-16T09:14:13.707Z,44.40
2018-01-16T09:16:39.554Z,43.58
2018-01-16T09:19:05.354Z,43.50
2018-01-16T09:21:31.193Z,43.86
2018-01-16T09:23:56.994Z,44.13
2018-01-16T09:26:22.869Z,44.23
2018-01-16T09:28:50.718Z,44.16
2018-01-16T09:31:16.570Z,44.17
2018-01-16T09:33:42.397Z,44.29
2018-01-16T09:36:08.254Z,44.31
2018-01-16T09:38:34.055Z,44.22
2018-01-16T09:40:59.886Z,44.48
2018-01-16T09:43:25.740Z,44.79
2018-01-16T09:45:51.538Z,44.29
2018-01-16T09:48:17.347Z,44.54
2018-01-16T09:50:43.159Z,44.40
2018-01-16T09:53:08.965Z,44.49
2018-01-16T09:55:34.776Z,44.18
2018-01-16T09:58:00.584Z,44.44
2018-01-16T10:00:26.590Z,44.00
2018-01-16T10:02:52.398Z,44.44
2018-01-16T10:05:18.206Z,44.09
2018-01-16T10:07:44.125Z,44.59
2018-01-16T10:10:09.890Z,44.72
2018-01-16T10:12:35.698Z,44.65
2018-01-16T10:15:01.509Z,44.17
2018-01-16T10:17:27.329Z,44.34
2018-01-16T10:19:53.134Z,44.25
2018-01-16T10:22:18.940Z,44.35
2018-01-16T10:24:44.806Z,44.47
2018-01-16T10:27:10.618Z,45.09
2018-01-16T10:29:36.571Z,44.55
2018-01-16T10:32:02.383Z,44.56
2018-01-16T10:34:28.239Z,44.86
2018-01-16T10:36:54.082Z,44.90
2018-01-16T10:39:19.885Z,44.81
2018-01-16T10:41:45.741Z,44.87
2018-01-16T10:44:11.541Z,45.30
2018-01-16T10:46:37.510Z,45.20
2018-01-16T10:49:03.349Z,45.24
2018-01-16T10:51:29.775Z,44.92
2018-01-16T10:53:55.585Z,44.79
2018-01-16T10:56:21.399Z,44.85
2018-01-16T10:58:47.206Z,45.38
2018-01-16T11:01:13.009Z,45.08
2018-01-16T11:03:38.810Z,45.61
2018-01-16T11:06:04.621Z,44.91
2018-01-16T11:08:30.429Z,45.45
2018-01-16T11:10:56.234Z,45.40
2018-01-16T11:13:22.038Z,45.74
2018-01-16T11:15:47.879Z,45.45
2018-01-16T11:18:13.687Z,45.31
2018-01-16T11:20:39.534Z,45.76
2018-01-16T11:23:05.335Z,45.50
2018-01-16T11:25:31.189Z,45.84
2018-01-16T11:27:57.002Z,46.34
2018-01-16T11:30:22.847Z,45.58
2018-01-16T11:32:48.655Z,45.92
2018-01-16T11:35:14.498Z,45.95
2018-01-16T11:37:40.311Z,46.51
2018-01-16T11:40:06.158Z,46.43
2018-01-16T11:42:32.129Z,45.99
2018-01-16T11:44:58.611Z,45.64
2018-01-16T11:47:24.458Z,45.91
2018-01-16T11:49:50.359Z,46.16
2018-01-16T11:52:16.162Z,45.54
2018-01-16T11:54:42.009Z,45.95
2018-01-16T11:57:07.874Z,46.20
2018-01-16T11:59:33.770Z,45.98
2018-01-16T12:01:59.590Z,46.51
2018-01-16T12:04:25.410Z,46.77
2018-01-16T12:06:52.042Z,46.71
2018-01-16T12:09:17.846Z,46.20
2018-01-16T12:11:43.886Z,46.66
2018-01-16T12:14:09.802Z,46.15
2018-01-16T12:16:35.637Z,46.25
2018-01-16T12:19:01.493Z,46.46
2018-01-16T12:21:27.338Z,46.58
2018-01-16T12:23:53.150Z,46.63
2018-01-16T12:26:19.034Z,46.87
2018-01-16T12:28:44.842Z,46.50
2018-01-16T12:31:10.646Z,46.64
2018-01-16T12:33:36.450Z,46.64
2018-01-16T12:36:02.260Z,46.52
2018-01-16T12:38:28.066Z,46.69
2018-01-16T12:40:53.938Z,46.47
2018-01-16T12:43:19.774Z,46.67
2018-01-16T12:45:45.577Z,47.29
2018-01-16T12:48:11.418Z,46.71
2018-01-16T12:50:37.224Z,47.31
2018-01-16T12:53:03.079Z,47.06
2018-01-16T12:55:28.902Z,47.06
2018-01-16T12:57:54.785Z,47.22
2018-01-16T13:00:20.610Z,47.58
2018-01-16T13:02:46.419Z,46.98
2018-01-16T13:05:12.298Z,46.71
2018-01-16T13:07:38.146Z,46.34
2018-01-16T13:10:04.019Z,46.47
2018-01-16T13:12:29.830Z,46.51
2018-01-16T13:14:55.673Z,46.36
2018-01-16T13:17:21.481Z,46.17
2018-01-16T13:19:47.294Z,46.42
2018-01-16T13:22:13.097Z,46.72
2018-01-16T13:24:38.942Z,46.86
2018-01-16T13:27:04.794Z,46.89
2018-01-16T13:29:30.613Z,46.50
2018-01-16T13:31:56.455Z,46.44
2018-01-16T13:34:22.277Z,46.81
2018-01-16T13:36:48.117Z,46.71
2018-01-16T13:39:13.927Z,46.81
2018-01-16T13:41:39.730Z,46.59
2018-01-16T13:44:05.538Z,46.83
2018-01-16T13:46:31.361Z,46.93
2018-01-16T13:48:57.174Z,46.48
2018-01-16T13:51:23.182Z,46.82
2018-01-16T13:53:48.991Z,47.08
2018-01-16T13:56:15.114Z,47.00
2018-01-16T13:58:40.923Z,46.82
2018-01-16T14:01:06.730Z,46.89
2018-01-16T14:03:32.550Z,46.40
2018-01-16T14:05:58.379Z,46.63
2018-01-16T14:08:24.186Z,46.95
2018-01-16T14:10:49.995Z,47.06
2018-01-16T14:13:15.810Z,46.96
2018-01-16T14:15:41.614Z,46.83
2018-01-16T14:18:08.073Z,46.58
2018-01-16T14:20:33.883Z,47.20
2018-01-16T14:22:59.730Z,47.38
2018-01-16T14:25:25.533Z,47.08
2018-01-16T14:27:51.343Z,46.60
2018-01-16T14:30:17.195Z,46.35
2018-01-16T14:32:43.028Z,46.56
2018-01-16T14:35:08.850Z,46.64
2018-01-16T14:37:34.755Z,46.73
2018-01-16T14:40:00.567Z,46.57
2018-01-16T14:42:26.379Z,46.38
2018-01-16T14:44:52.191Z,46.38
2018-01-16T14:47:18.008Z,46.31
2018-01-16T14:54:36.710Z,48.68
2018-01-16T14:57:02.563Z,47.68
2018-01-16T14:59:28.379Z,46.89
2018-01-16T15:01:54.189Z,46.64
2018-01-16T15:04:20.042Z,47.06
2018-01-16T15:06:45.851Z,46.40
2018-01-16T15:09:11.668Z,46.08
2018-01-16T15:11:37.519Z,46.37
2018-01-16T15:14:03.370Z,46.23
2018-01-16T15:16:29.190Z,46.16
2018-01-16T15:18:55.608Z,46.19
2018-01-16T15:21:21.461Z,46.44
2018-01-16T15:23:47.265Z,46.49
2018-01-16T15:26:13.137Z,46.15
2018-01-16T15:28:38.981Z,46.20
2018-01-16T15:31:04.786Z,46.06
2018-01-16T15:33:30.636Z,46.17
2018-01-16T15:35:56.445Z,45.78
2018-01-16T15:38:22.343Z,45.88
2018-01-16T15:40:48.154Z,45.68
2018-01-16T15:43:13.967Z,46.06
2018-01-16T15:45:39.826Z,45.93
2018-01-16T15:48:05.638Z,45.92
2018-01-16T15:50:31.594Z,46.47
2018-01-16T15:52:58.040Z,46.53
2018-01-16T15:55:23.955Z,46.90
2018-01-16T15:57:49.799Z,46.86
2018-01-16T16:00:15.609Z,46.17
2018-01-16T16:02:41.419Z,46.05
2018-01-16T16:05:08.230Z,46.84
2018-01-16T16:07:34.042Z,46.91
2018-01-16T16:09:59.884Z,47.13
2018-01-16T16:12:25.689Z,46.60
2018-01-16T16:14:51.494Z,46.93
2018-01-16T16:17:17.340Z,46.92
2018-01-16T16:19:43.145Z,46.71
2018-01-16T16:22:09.099Z,47.01
2018-01-16T16:24:34.950Z,46.75
2018-01-16T16:27:00.763Z,46.71
2018-01-16T16:29:26.567Z,46.56
2018-01-16T16:31:52.370Z,46.80
2018-01-16T16:34:18.182Z,46.84
2018-01-16T16:36:44.514Z,47.07
2018-01-16T16:39:10.332Z,46.78
2018-01-16T16:41:36.134Z,47.02
2018-01-16T16:44:01.978Z,46.95
2018-01-16T16:46:27.794Z,46.82
2018-01-16T16:48:53.655Z,47.05
2018-01-16T16:51:19.503Z,46.69
2018-01-16T16:53:45.314Z,47.56
2018-01-16T16:56:11.130Z,46.72
2018-01-16T16:58:36.945Z,46.92
2018-01-16T17:01:02.761Z,46.56
2018-01-16T17:03:28.598Z,46.62
2018-01-16T17:05:54.406Z,46.46
2018-01-16T17:08:20.230Z,46.34
2018-01-16T17:10:46.034Z,46.19
2018-01-16T17:13:11.846Z,46.70
2018-01-16T17:15:37.654Z,46.41
2018-01-16T17:18:03.458Z,46.44
2018-01-16T17:20:29.381Z,46.29
2018-01-16T17:22:55.198Z,46.21
2018-01-16T17:25:21.132Z,46.13
2018-01-16T17:27:46.935Z,46.33
2018-01-16T17:30:12.746Z,46.49
2018-01-16T17:32:38.558Z,46.58
2018-01-16T17:35:04.373Z,46.51
2018-01-16T17:37:30.186Z,46.35
2018-01-16T17:39:55.999Z,46.32
2018-01-16T17:42:21.807Z,46.62
2018-01-16T17:44:47.655Z,46.39
2018-01-16T17:47:13.503Z,46.13
2018-01-16T17:49:39.355Z,46.10
2018-01-16T17:52:05.170Z,46.34
2018-01-16T17:54:31.108Z,46.11
2018-01-16T17:56:56.914Z,46.26
2018-01-16T17:59:22.761Z,46.56
2018-01-16T18:01:48.567Z,46.38
2018-01-16T18:04:14.389Z,46.14
2018-01-16T18:06:40.210Z,46.27
2018-01-16T18:09:06.410Z,46.70
2018-01-16T18:11:32.316Z,46.50
2018-01-16T18:13:58.246Z,45.94
2018-01-16T18:16:24.059Z,46.02
2018-01-16T18:18:49.890Z,45.98
2018-01-16T18:21:15.710Z,46.13
2018-01-16T18:23:41.525Z,46.10
2018-01-16T18:26:07.435Z,46.15
2018-01-16T18:28:33.253Z,46.20
2018-01-16T18:30:59.127Z,46.06
2018-01-16T18:33:24.959Z,46.24
2018-01-16T18:35:50.811Z,46.14
2018-01-16T18:38:16.626Z,45.91
2018-01-16T18:40:42.447Z,46.09
2018-01-16T18:43:08.265Z,45.96
2018-01-16T18:45:34.164Z,46.01
2018-01-16T18:48:00.020Z,46.12
2018-01-16T18:50:25.834Z,45.94
2018-01-16T18:52:51.646Z,46.32
2018-01-16T18:55:17.574Z,45.95
2018-01-16T18:57:43.388Z,46.24
2018-01-16T19:00:09.235Z,46.25
2018-01-16T19:02:35.113Z,46.17
2018-01-16T19:05:00.958Z,46.06
2018-01-16T19:07:26.813Z,46.20
2018-01-16T19:09:52.669Z,45.92
2018-01-16T19:12:18.478Z,45.99
2018-01-16T19:14:44.310Z,45.98
2018-01-16T19:17:10.133Z,46.03
2018-01-16T19:19:35.949Z,46.14
2018-01-16T19:22:01.806Z,45.95
2018-01-16T19:24:27.622Z,46.31
2018-01-16T19:26:53.490Z,46.22
2018-01-16T19:29:19.475Z,45.56
2018-01-16T19:31:45.350Z,46.22
2018-01-16T19:34:11.170Z,45.98
2018-01-16T19:36:36.990Z,46.16
2018-01-16T19:39:02.835Z,46.01
2018-01-16T19:41:29.359Z,45.52
2018-01-16T19:43:55.174Z,45.76
2018-01-16T19:46:20.993Z,45.90
2018-01-16T19:48:46.811Z,46.11
2018-01-16T19:51:12.635Z,45.94
2018-01-16T19:53:38.490Z,45.58
2018-01-16T19:56:04.350Z,45.82
2018-01-16T19:58:30.214Z,45.78
2018-01-16T20:00:56.034Z,45.70
2018-01-16T20:03:21.859Z,45.90
2018-01-16T20:05:47.674Z,45.77
2018-01-16T20:08:13.490Z,45.90
2018-01-16T20:10:39.310Z,45.96
2018-01-16T20:13:05.130Z,45.86
2018-01-16T20:15:33.418Z,45.88
2018-01-16T20:17:59.243Z,45.96
2018-01-16T20:20:25.058Z,45.95
2018-01-16T20:25:36.298Z,46.38
2018-01-16T20:28:02.113Z,45.80
2018-01-16T20:30:27.922Z,45.68
2018-01-16T20:32:53.778Z,45.47
2018-01-16T20:35:19.598Z,45.72
2018-01-16T20:37:45.449Z,45.74
2018-01-16T20:40:11.268Z,45.46
2018-01-16T20:42:37.084Z,45.85
2018-01-16T20:45:03.075Z,45.72
2018-01-16T20:47:28.898Z,45.74
2018-01-16T20:49:54.882Z,45.83
2018-01-16T20:52:20.709Z,45.59
2018-01-16T20:54:46.550Z,45.88
2018-01-16T20:57:12.370Z,45.77
2018-01-16T20:59:38.190Z,45.46
2018-01-16T21:02:04.003Z,45.81
2018-01-16T21:04:29.827Z,45.95
2018-01-16T21:06:55.683Z,45.56
2018-01-16T21:09:21.498Z,45.24
2018-01-16T21:11:47.354Z,45.90
2018-01-16T21:14:13.170Z,45.98
2018-01-16T21:16:38.981Z,45.89
2018-01-16T21:19:04.796Z,45.80
2018-01-16T21:21:30.610Z,45.84
2018-01-16T21:23:56.509Z,45.43
2018-01-16T21:26:22.327Z,45.56
2018-01-16T21:28:48.142Z,45.75
2018-01-16T21:31:13.954Z,45.53
2018-01-16T21:33:39.770Z,45.76
2018-01-16T21:36:05.582Z,45.69
2018-01-16T21:38:31.416Z,45.77
2018-01-16T21:40:57.226Z,45.28
2018-01-16T21:43:23.074Z,45.72
2018-01-16T21:45:48.969Z,45.63
2018-01-16T21:48:14.967Z,45.27
2018-01-16T21:50:40.821Z,45.56
2018-01-16T21:53:06.661Z,45.45
2018-01-16T21:55:32.481Z,45.87
2018-01-16T21:57:58.298Z,45.67
2018-01-16T22:00:24.106Z,44.95
2018-01-16T22:02:49.964Z,45.47
2018-01-16T22:05:15.785Z,45.35
2018-01-16T22:07:41.590Z,45.65
2018-01-16T22:10:07.546Z,45.74
2018-01-16T22:12:33.403Z,45.51
2018-01-16T22:14:59.390Z,45.40
2018-01-16T22:17:25.207Z,45.48
2018-01-16T22:19:51.123Z,45.57
2018-01-16T22:22:16.974Z,45.83
2018-01-16T22:24:42.785Z,45.61
2018-01-16T22:27:08.598Z,45.50
2018-01-16T22:29:34.445Z,45.89
2018-01-16T22:32:00.285Z,44.87
2018-01-16T22:34:26.154Z,45.69
2018-01-16T22:36:51.990Z,45.95
2018-01-16T22:39:17.802Z,45.49
2018-01-16T22:41:43.613Z,45.45
2018-01-16T22:44:09.425Z,45.54
2018-01-16T22:46:35.245Z,45.29
2018-01-16T22:49:01.058Z,45.68
2018-01-16T22:51:27.006Z,45.68
2018-01-16T22:53:52.814Z,45.51
2018-01-16T22:56:18.631Z,45.83
2018-01-16T22:58:44.450Z,45.61
2018-01-16T23:01:10.321Z,45.43
2018-01-16T23:03:36.130Z,45.70
2018-01-16T23:06:01.953Z,45.99
2018-01-16T23:08:27.774Z,45.59
2018-01-16T23:10:53.654Z,45.60
2018-01-16T23:13:19.694Z,45.12
2018-01-16T23:15:45.510Z,45.60
2018-01-16T23:18:11.334Z,45.69
2018-01-16T23:20:37.151Z,45.96
2018-01-16T23:23:03.050Z,45.71
2018-01-16T23:25:28.862Z,45.51
2018-01-16T23:27:54.676Z,45.53
2018-01-16T23:30:20.530Z,44.92
2018-01-16T23:32:46.348Z,45.32
2018-01-16T23:35:12.197Z,45.71
2018-01-16T23:37:38.061Z,45.15
2018-01-16T23:40:03.876Z,45.01
2018-01-16T23:42:29.706Z,45.63
2018-01-16T23:44:55.859Z,46.00
2018-01-16T23:47:21.674Z,45.66
2018-01-16T23:49:47.490Z,45.81
2018-01-16T23:52:13.346Z,45.34
2018-01-16T23:54:39.167Z,45.38
2018-01-16T23:57:05.933Z,45.12
2018-01-16T23:59:31.742Z,45.26
